createdAt,value
2018-06-10T00:01:24.461Z,10.40
2018-06-10T00:03:52.297Z,10.70
2018-06-10T00:06:20.097Z,10.70
2018-06-10T00:08:48.021Z,10.67
2018-06-10T00:11:15.836Z,8.97
2018-06-10T00:13:43.618Z,10.13
2018-06-10T00:16:11.457Z,10.17
2018-06-10T00:18:39.394Z,9.60
2018-06-10T00:21:07.189Z,9.93
2018-06-10T00:23:35.042Z,9.30
2018-06-10T00:26:03.041Z,9.37
2018-06-10T00:28:36.429Z,10.27
2018-06-10T00:31:04.273Z,9.63
2018-06-10T00:33:33.817Z,9.27
2018-06-10T00:36:01.842Z,9.50
2018-06-10T00:38:29.647Z,9.63
2018-06-10T00:40:57.466Z,9.43
2018-06-10T00:43:25.313Z,9.87
2018-06-10T00:45:53.494Z,9.47
2018-06-10T00:48:21.317Z,9.00
2018-06-10T00:50:49.117Z,9.30
2018-06-10T00:53:16.985Z,8.53
2018-06-10T00:55:44.781Z,8.20
2018-06-10T00:58:12.661Z,8.63
2018-06-10T01:00:40.489Z,8.87
2018-06-10T01:03:08.257Z,9.27
2018-06-10T01:05:36.149Z,9.20
2018-06-10T01:08:03.997Z,8.83
2018-06-10T01:10:31.915Z,9.37
2018-06-10T01:12:59.752Z,10.13
2018-06-10T01:15:27.565Z,8.83
2018-06-10T01:17:55.421Z,8.23
2018-06-10T01:20:23.253Z,8.27
2018-06-10T01:22:51.046Z,8.20
2018-06-10T01:25:18.850Z,7.73
2018-06-10T01:27:46.617Z,8.50
2018-06-10T01:30:14.645Z,8.07
2018-06-10T01:32:42.423Z,8.70
2018-06-10T01:35:10.231Z,7.63
2018-06-10T01:37:38.042Z,8.20
2018-06-10T01:40:06.089Z,7.70
2018-06-10T01:42:33.948Z,7.77
2018-06-10T01:45:01.929Z,6.97
2018-06-10T01:47:29.730Z,6.87
2018-06-10T01:49:57.753Z,6.97
2018-06-10T01:52:25.537Z,7.60
2018-06-10T01:54:53.333Z,6.93
2018-06-10T01:57:21.109Z,7.20
2018-06-10T01:59:49.062Z,6.80
2018-06-10T02:02:16.865Z,6.73
2018-06-10T02:04:44.657Z,7.13
2018-06-10T02:07:12.443Z,7.00
2018-06-10T02:09:40.350Z,7.53
2018-06-10T02:12:08.175Z,7.70
2018-06-10T02:14:35.932Z,7.47
2018-06-10T02:17:03.736Z,8.07
2018-06-10T02:19:37.416Z,7.97
2018-06-10T02:22:05.329Z,8.73
2018-06-10T02:24:33.385Z,8.27
2018-06-10T02:27:01.137Z,7.50
2018-06-10T02:29:28.949Z,8.70
2018-06-10T02:31:56.733Z,8.00
2018-06-10T02:34:24.645Z,8.27
2018-06-10T02:36:52.497Z,8.60
2018-06-10T02:39:20.473Z,9.17
2018-06-10T02:41:48.281Z,8.90
2018-06-10T02:44:16.143Z,9.10
2018-06-10T02:46:43.941Z,8.90
2018-06-10T02:49:11.781Z,8.83
2018-06-10T02:51:39.570Z,8.93
2018-06-10T02:54:07.465Z,8.63
2018-06-10T02:56:35.388Z,8.67
2018-06-10T02:59:03.418Z,8.53
2018-06-10T03:01:31.435Z,8.23
2018-06-10T03:03:59.393Z,8.80
2018-06-10T03:06:27.225Z,8.37
2018-06-10T03:08:55.088Z,9.10
2018-06-10T03:11:22.902Z,8.27
2018-06-10T03:13:50.673Z,7.80
2018-06-10T03:16:18.517Z,7.53
2018-06-10T03:18:47.272Z,7.77
2018-06-10T03:21:15.133Z,7.63
2018-06-10T03:23:42.937Z,7.70
2018-06-10T03:26:10.742Z,8.20
2018-06-10T03:28:38.565Z,7.63
2018-06-10T03:31:06.509Z,8.23
2018-06-10T03:33:34.321Z,7.57
2018-06-10T03:36:02.201Z,8.00
2018-06-10T03:38:30.009Z,7.33
2018-06-10T03:40:57.906Z,7.67
2018-06-10T03:43:25.945Z,7.17
2018-06-10T03:45:53.973Z,7.30
2018-06-10T03:48:21.789Z,7.23
2018-06-10T03:50:49.853Z,7.23
2018-06-10T03:53:17.653Z,7.03
2018-06-10T03:55:45.481Z,7.33
2018-06-10T03:58:13.265Z,6.67
2018-06-10T04:00:41.091Z,7.17
2018-06-10T04:03:08.927Z,6.53
2018-06-10T04:05:36.745Z,6.60
2018-06-10T04:08:04.681Z,6.30
2018-06-10T04:10:32.509Z,6.47
2018-06-10T04:13:00.301Z,6.83
2018-06-10T04:15:28.049Z,6.70
2018-06-10T04:17:55.946Z,6.30
2018-06-10T04:20:23.895Z,6.27
2018-06-10T04:22:51.760Z,6.13
2018-06-10T04:25:19.618Z,5.83
2018-06-10T04:27:48.142Z,5.80
2018-06-10T04:30:16.262Z,5.53
2018-06-10T04:32:44.100Z,5.13
2018-06-10T04:35:12.489Z,5.50
2018-06-10T04:37:40.613Z,5.23
2018-06-10T04:40:08.773Z,5.50
2018-06-10T04:42:36.603Z,5.40
2018-06-10T04:45:04.446Z,5.00
2018-06-10T04:47:32.236Z,4.40
2018-06-10T04:50:00.128Z,4.57
2018-06-10T04:52:27.816Z,4.70
2018-06-10T04:54:55.641Z,5.30
2018-06-10T04:57:23.409Z,4.70
2018-06-10T04:59:52.329Z,5.20
2018-06-10T05:02:20.309Z,5.00
2018-06-10T05:04:48.277Z,5.40
2018-06-10T05:07:16.162Z,5.70
2018-06-10T05:09:44.077Z,5.90
2018-06-10T05:12:11.873Z,6.53
2018-06-10T05:14:39.701Z,6.10
2018-06-10T05:17:07.667Z,6.50
2018-06-10T05:19:36.594Z,6.27
2018-06-10T05:22:04.514Z,5.93
2018-06-10T05:24:32.332Z,5.97
2018-06-10T05:27:00.101Z,5.50
2018-06-10T05:29:28.069Z,5.97
2018-06-10T05:31:55.973Z,5.77
2018-06-10T05:34:23.894Z,6.57
2018-06-10T05:36:51.740Z,6.83
2018-06-10T05:39:19.632Z,6.80
2018-06-10T05:41:47.773Z,6.27
2018-06-10T05:44:15.701Z,6.53
2018-06-10T05:46:43.495Z,5.33
2018-06-10T05:49:11.312Z,5.20
2018-06-10T05:51:39.297Z,4.80
2018-06-10T05:54:07.177Z,5.20
2018-06-10T05:56:35.024Z,4.43
2018-06-10T05:59:02.801Z,4.87
2018-06-10T06:01:30.573Z,4.53
2018-06-10T06:03:58.433Z,4.33
2018-06-10T06:06:26.177Z,5.07
2018-06-10T06:08:53.945Z,3.93
2018-06-10T06:11:21.715Z,4.20
2018-06-10T06:13:49.541Z,3.83
2018-06-10T06:16:17.337Z,4.17
2018-06-10T06:18:45.098Z,3.57
2018-06-10T06:21:12.853Z,3.60
2018-06-10T06:23:40.676Z,4.13
2018-06-10T06:26:08.451Z,3.93
2018-06-10T06:28:36.445Z,3.27
2018-06-10T06:31:04.318Z,3.63
2018-06-10T06:33:32.117Z,2.93
2018-06-10T06:35:59.876Z,3.50
2018-06-10T06:38:27.636Z,3.50
2018-06-10T06:40:55.681Z,3.50
2018-06-10T06:43:23.332Z,3.77
2018-06-10T06:45:51.172Z,3.93
2018-06-10T06:48:18.941Z,3.80
2018-06-10T06:50:47.361Z,3.33
2018-06-10T06:53:15.313Z,3.60
2018-06-10T06:55:43.106Z,3.23
2018-06-10T06:58:10.890Z,3.83
2018-06-10T07:00:44.113Z,3.87
2018-06-10T07:03:12.085Z,3.67
2018-06-10T07:05:40.090Z,3.20
2018-06-10T07:08:08.125Z,3.30
2018-06-10T07:10:37.468Z,3.40
2018-06-10T07:13:05.621Z,3.30
2018-06-10T07:15:33.382Z,3.33
2018-06-10T07:18:01.121Z,3.03
2018-06-10T07:20:28.929Z,3.17
2018-06-10T07:22:56.706Z,3.90
2018-06-10T07:25:26.876Z,3.43
2018-06-10T07:27:54.718Z,3.50
2018-06-10T07:30:24.816Z,3.40
2018-06-10T07:32:52.612Z,3.33
2018-06-10T07:35:20.940Z,3.53
2018-06-10T07:37:48.673Z,3.30
2018-06-10T07:40:16.981Z,3.00
2018-06-10T07:42:44.788Z,3.30
2018-06-10T07:45:13.091Z,3.03
2018-06-10T07:47:40.988Z,3.30
2018-06-10T07:50:09.115Z,3.90
2018-06-10T07:52:38.242Z,3.57
2018-06-10T07:55:06.184Z,3.20
2018-06-10T07:57:34.096Z,3.17
2018-06-10T08:00:07.818Z,3.43
2018-06-10T08:02:36.761Z,3.40
2018-06-10T08:05:06.654Z,3.30
2018-06-10T08:07:34.618Z,3.50
2018-06-10T08:10:02.564Z,3.40
2018-06-10T08:12:30.437Z,3.13
2018-06-10T08:14:58.405Z,3.20
2018-06-10T08:17:26.451Z,3.45
2018-06-10T08:19:54.390Z,3.12
2018-06-10T08:22:22.281Z,3.27
2018-06-10T08:24:49.980Z,3.75
2018-06-10T08:27:17.966Z,3.90
2018-06-10T08:29:45.982Z,3.60
2018-06-10T08:32:13.841Z,3.35
2018-06-10T08:34:41.791Z,3.75
2018-06-10T08:37:09.653Z,3.87
2018-06-10T08:39:37.836Z,4.10
2018-06-10T08:42:06.320Z,4.03
2018-06-10T08:44:34.209Z,4.17
2018-06-10T08:47:02.157Z,3.83
2018-06-10T08:49:30.289Z,4.30
2018-06-10T08:51:58.209Z,3.90
2018-06-10T08:54:25.980Z,4.00
2018-06-10T08:56:53.908Z,3.60
2018-06-10T08:59:21.876Z,4.22
2018-06-10T09:01:49.765Z,3.67
2018-06-10T09:04:17.661Z,3.75
2018-06-10T09:06:45.445Z,4.00
2018-06-10T09:09:13.592Z,3.90
2018-06-10T09:11:41.369Z,3.98
2018-06-10T09:14:09.313Z,3.40
2018-06-10T09:16:37.099Z,3.75
2018-06-10T09:19:05.230Z,4.00
2018-06-10T09:21:33.010Z,3.95
2018-06-10T09:24:00.838Z,3.60
2018-06-10T09:26:28.633Z,3.35
2018-06-10T09:28:56.451Z,3.42
2018-06-10T09:31:24.246Z,4.00
2018-06-10T09:33:52.063Z,3.75
2018-06-10T09:36:19.844Z,4.15
2018-06-10T09:38:47.645Z,3.50
2018-06-10T09:41:17.429Z,3.80
2018-06-10T09:43:45.025Z,3.62
2018-06-10T09:46:13.565Z,12.28
2018-06-10T09:48:41.681Z,24.00
2018-06-10T09:51:09.633Z,4.12
2018-06-10T09:53:37.782Z,4.55
2018-06-10T09:56:05.758Z,4.17
2018-06-10T09:58:33.575Z,3.85
2018-06-10T10:01:03.410Z,3.90
2018-06-10T10:03:31.194Z,4.30
2018-06-10T10:05:58.960Z,3.80
2018-06-10T10:08:26.765Z,3.98
2018-06-10T10:10:54.743Z,4.20
2018-06-10T10:13:22.493Z,4.30
2018-06-10T10:15:50.269Z,4.15
2018-06-10T10:18:18.036Z,4.80
2018-06-10T10:20:46.037Z,4.47
2018-06-10T10:23:13.813Z,4.50
2018-06-10T10:25:41.641Z,4.62
2018-06-10T10:28:09.792Z,4.53
2018-06-10T10:30:37.690Z,4.53
2018-06-10T10:33:05.304Z,4.40
2018-06-10T10:35:33.098Z,4.80
2018-06-10T10:38:00.847Z,4.72
2018-06-10T10:40:28.729Z,4.70
2018-06-10T10:42:56.509Z,4.55
2018-06-10T10:45:24.128Z,4.78
2018-06-10T10:47:51.924Z,4.70
2018-06-10T10:50:20.464Z,4.83
2018-06-10T10:52:48.240Z,4.70
2018-06-10T10:55:16.137Z,4.80
2018-06-10T10:57:44.540Z,4.50
2018-06-10T11:00:12.401Z,4.78
2018-06-10T11:02:40.592Z,4.65
2018-06-10T11:05:08.525Z,4.60
2018-06-10T11:07:36.486Z,4.83
2018-06-10T11:10:04.401Z,4.65
2018-06-10T11:12:32.269Z,4.53
2018-06-10T11:15:00.032Z,4.40
2018-06-10T11:17:27.918Z,4.33
2018-06-10T11:19:55.733Z,4.62
2018-06-10T11:22:23.501Z,4.60
2018-06-10T11:24:51.162Z,4.78
2018-06-10T11:27:18.957Z,4.92
2018-06-10T11:29:46.739Z,4.33
2018-06-10T11:32:14.546Z,4.47
2018-06-10T11:34:42.315Z,4.78
2018-06-10T11:37:10.163Z,4.85
2018-06-10T11:39:38.007Z,5.00
2018-06-10T11:42:05.789Z,4.90
2018-06-10T11:44:33.590Z,4.83
2018-06-10T11:47:01.375Z,4.28
2018-06-10T11:49:29.173Z,4.70
2018-06-10T11:51:56.988Z,4.42
2018-06-10T11:54:24.721Z,4.35
2018-06-10T11:56:52.513Z,4.30
2018-06-10T11:59:20.166Z,4.78
2018-06-10T12:01:47.913Z,5.15
2018-06-10T12:04:15.810Z,4.60
2018-06-10T12:06:43.480Z,4.58
2018-06-10T12:09:11.376Z,4.50
2018-06-10T12:11:39.194Z,4.53
2018-06-10T12:14:07.020Z,4.62
2018-06-10T12:16:35.560Z,4.25
2018-06-10T12:19:03.665Z,4.47
2018-06-10T12:21:32.662Z,4.40
2018-06-10T12:24:00.482Z,4.65
2018-06-10T12:26:28.261Z,4.60
2018-06-10T12:28:56.270Z,4.30
2018-06-10T12:31:24.026Z,4.37
2018-06-10T12:33:52.432Z,3.85
2018-06-10T12:36:20.218Z,4.60
2018-06-10T12:38:48.009Z,4.28
2018-06-10T12:41:15.791Z,3.98
2018-06-10T12:43:50.398Z,4.15
2018-06-10T12:46:19.145Z,4.37
2018-06-10T12:48:46.956Z,4.33
2018-06-10T12:51:14.849Z,4.20
2018-06-10T12:53:42.669Z,3.90
2018-06-10T12:56:10.651Z,4.15
2018-06-10T12:58:38.515Z,4.10
2018-06-10T13:01:06.278Z,4.20
2018-06-10T13:03:34.067Z,3.87
2018-06-10T13:06:03.425Z,4.10
2018-06-10T13:08:31.254Z,3.58
2018-06-10T13:10:59.008Z,3.62
2018-06-10T13:13:26.777Z,3.75
2018-06-10T13:15:54.561Z,3.70
2018-06-10T13:18:22.342Z,3.70
2018-06-10T13:20:50.140Z,3.60
2018-06-10T13:23:17.922Z,3.87
2018-06-10T13:25:45.815Z,3.70
2018-06-10T13:28:13.601Z,3.83
2018-06-10T13:30:41.763Z,3.55
2018-06-10T13:33:09.603Z,3.52
2018-06-10T13:35:37.381Z,3.50
2018-06-10T13:38:05.270Z,3.37
2018-06-10T13:40:33.420Z,3.33
2018-06-10T13:43:01.276Z,3.90
2018-06-10T13:45:29.285Z,3.80
2018-06-10T13:47:57.081Z,3.58
2018-06-10T13:50:26.270Z,3.37
2018-06-10T13:52:53.920Z,3.33
2018-06-10T13:55:21.753Z,3.47
2018-06-10T13:57:49.510Z,3.52
2018-06-10T14:00:18.160Z,3.30
2018-06-10T14:02:46.034Z,3.33
2018-06-10T14:05:14.248Z,3.52
2018-06-10T14:07:42.209Z,3.05
2018-06-10T14:10:10.338Z,3.27
2018-06-10T14:12:38.162Z,3.60
2018-06-10T14:15:06.029Z,3.37
2018-06-10T14:17:33.848Z,3.33
2018-06-10T14:20:01.615Z,3.62
2018-06-10T14:22:29.381Z,3.50
2018-06-10T14:24:57.221Z,3.40
2018-06-10T14:27:25.022Z,3.45
2018-06-10T14:29:53.314Z,3.08
2018-06-10T14:32:21.285Z,3.65
2018-06-10T14:34:49.118Z,3.50
2018-06-10T14:37:31.482Z,3.77
2018-06-10T14:39:59.419Z,3.50
2018-06-10T14:42:27.263Z,3.98
2018-06-10T14:44:55.050Z,3.35
2018-06-10T14:47:23.290Z,3.50
2018-06-10T14:49:51.360Z,3.58
2018-06-10T14:52:19.008Z,3.60
2018-06-10T14:54:47.794Z,3.55
2018-06-10T14:57:15.861Z,3.20
2018-06-10T14:59:44.017Z,3.10
2018-06-10T15:02:11.794Z,3.60
2018-06-10T15:04:39.760Z,3.45
2018-06-10T15:07:07.585Z,3.35
2018-06-10T15:09:35.783Z,3.40
2018-06-10T15:12:03.566Z,3.95
2018-06-10T15:14:31.359Z,3.30
2018-06-10T15:16:59.327Z,3.37
2018-06-10T15:19:27.141Z,3.10
2018-06-10T15:21:54.938Z,3.50
2018-06-10T15:24:22.705Z,3.80
2018-06-10T15:26:50.496Z,3.10
2018-06-10T15:29:18.263Z,3.30
2018-06-10T15:31:46.066Z,3.00
2018-06-10T15:34:14.081Z,3.33
2018-06-10T15:36:41.970Z,2.90
2018-06-10T15:39:09.832Z,3.45
2018-06-10T15:41:37.626Z,3.17
2018-06-10T15:44:05.481Z,3.58
2018-06-10T15:46:33.336Z,3.23
2018-06-10T15:49:01.198Z,3.53
2018-06-10T15:51:28.998Z,3.83
2018-06-10T15:53:56.790Z,3.70
2018-06-10T15:56:24.612Z,3.20
2018-06-10T15:58:52.434Z,3.20
2018-06-10T16:01:20.146Z,2.87
2018-06-10T16:03:47.938Z,3.27
2018-06-10T16:06:15.707Z,3.17
2018-06-10T16:08:43.555Z,2.87
2018-06-10T16:11:11.873Z,2.90
2018-06-10T16:13:39.517Z,2.90
2018-06-10T16:16:07.271Z,2.70
2018-06-10T16:18:35.065Z,2.53
2018-06-10T16:21:02.942Z,2.62
2018-06-10T16:23:30.580Z,2.90
2018-06-10T16:25:58.393Z,2.75
2018-06-10T16:28:26.181Z,2.70
2018-06-10T16:30:54.007Z,2.80
2018-06-10T16:33:21.641Z,2.67
2018-06-10T16:35:49.476Z,2.70
2018-06-10T16:38:17.348Z,2.87
2018-06-10T16:40:45.491Z,2.95
2018-06-10T16:43:13.413Z,2.75
2018-06-10T16:45:41.244Z,2.85
2018-06-10T16:48:09.024Z,2.90
2018-06-10T16:50:37.003Z,2.98
2018-06-10T16:53:04.796Z,2.92
2018-06-10T16:55:32.412Z,3.02
2018-06-10T16:58:00.226Z,2.80
2018-06-10T17:00:28.092Z,2.50
2018-06-10T17:02:55.740Z,2.90
2018-06-10T17:05:23.533Z,2.70
2018-06-10T17:07:51.301Z,2.67
2018-06-10T17:10:21.830Z,2.63
2018-06-10T17:12:49.657Z,2.50
2018-06-10T17:15:17.473Z,2.75
2018-06-10T17:17:45.383Z,2.70
2018-06-10T17:20:13.369Z,2.77
2018-06-10T17:22:41.305Z,3.23
2018-06-10T17:25:09.170Z,2.95
2018-06-10T17:27:36.934Z,2.97
2018-06-10T17:30:04.950Z,2.93
2018-06-10T17:32:34.013Z,2.90
2018-06-10T17:35:01.794Z,3.00
2018-06-10T17:37:29.599Z,3.20
2018-06-10T17:39:57.536Z,2.50
2018-06-10T17:42:25.313Z,2.60
2018-06-10T17:44:53.170Z,3.23
2018-06-10T17:47:21.227Z,3.10
2018-06-10T17:49:49.278Z,3.40
2018-06-10T17:52:17.087Z,3.20
2018-06-10T17:54:44.938Z,3.47
2018-06-10T17:57:13.035Z,3.17
2018-06-10T17:59:46.441Z,3.30
2018-06-10T18:02:14.552Z,3.37
2018-06-10T18:04:42.733Z,3.03
2018-06-10T18:07:10.508Z,3.37
2018-06-10T18:09:39.212Z,3.30
2018-06-10T18:12:08.576Z,2.83
2018-06-10T18:14:37.419Z,3.40
2018-06-10T18:17:06.464Z,3.40
2018-06-10T18:19:34.969Z,3.60
2018-06-10T18:22:03.155Z,3.20
2018-06-10T18:24:30.965Z,3.50
2018-06-10T18:26:59.410Z,4.17
2018-06-10T18:29:27.186Z,4.67
2018-06-10T18:31:55.754Z,5.40
2018-06-10T18:34:23.554Z,4.67
2018-06-10T18:36:51.462Z,3.60
2018-06-10T18:39:19.365Z,4.30
2018-06-10T18:41:47.337Z,4.13
2018-06-10T18:44:15.165Z,4.00
2018-06-10T18:46:43.263Z,4.53
2018-06-10T18:49:11.395Z,3.77
2018-06-10T18:51:39.353Z,4.00
2018-06-10T18:54:07.113Z,4.13
2018-06-10T18:56:34.932Z,4.00
2018-06-10T18:59:02.913Z,5.17
2018-06-10T19:01:30.799Z,4.70
2018-06-10T19:03:58.714Z,4.70
2018-06-10T19:06:26.549Z,4.90
2018-06-10T19:08:54.353Z,4.57
2018-06-10T19:11:22.346Z,4.33
2018-06-10T19:13:50.363Z,4.13
2018-06-10T19:16:18.274Z,4.33
2018-06-10T19:18:46.205Z,4.40
2018-06-10T19:21:14.139Z,4.30
2018-06-10T19:23:43.969Z,4.00
2018-06-10T19:26:12.006Z,4.27
2018-06-10T19:28:39.964Z,4.00
2018-06-10T19:31:07.957Z,4.30
2018-06-10T19:33:35.787Z,4.07
2018-06-10T19:36:03.678Z,4.50
2018-06-10T19:38:31.993Z,4.43
2018-06-10T19:40:59.818Z,3.90
2018-06-10T19:43:27.632Z,3.80
2018-06-10T19:45:55.531Z,4.10
2018-06-10T19:48:23.341Z,4.00
2018-06-10T19:50:51.254Z,3.87
2018-06-10T19:53:19.197Z,4.13
2018-06-10T19:55:47.846Z,3.80
2018-06-10T19:58:15.758Z,3.70
2018-06-10T20:00:44.067Z,4.00
2018-06-10T20:03:11.832Z,12.07
2018-06-10T20:05:39.754Z,31.67
2018-06-10T20:08:07.550Z,15.67
2018-06-10T20:10:35.325Z,39.17
2018-06-10T20:13:03.275Z,41.07
2018-06-10T20:15:31.044Z,10.87
2018-06-10T20:17:58.946Z,19.67
2018-06-10T20:20:26.781Z,5.37
2018-06-10T20:22:54.603Z,4.23
2018-06-10T20:25:22.422Z,4.40
2018-06-10T20:27:50.230Z,4.20
2018-06-10T20:30:18.252Z,4.37
2018-06-10T20:32:46.282Z,3.80
2018-06-10T20:35:14.521Z,4.70
2018-06-10T20:37:42.338Z,4.10
2018-06-10T20:40:10.174Z,4.30
2018-06-10T20:42:38.013Z,4.33
2018-06-10T20:45:05.842Z,4.00
2018-06-10T20:47:33.658Z,3.97
2018-06-10T20:50:01.577Z,4.53
2018-06-10T20:52:29.355Z,3.93
2018-06-10T20:54:57.158Z,4.30
2018-06-10T20:57:25.029Z,4.23
2018-06-10T20:59:52.861Z,4.47
2018-06-10T21:02:20.629Z,4.10
2018-06-10T21:04:48.307Z,4.37
2018-06-10T21:07:16.160Z,4.40
2018-06-10T21:09:44.269Z,4.57
2018-06-10T21:12:12.417Z,4.30
2018-06-10T21:14:40.253Z,4.20
2018-06-10T21:17:08.125Z,4.40
2018-06-10T21:19:36.226Z,4.40
2018-06-10T21:22:04.020Z,4.27
2018-06-10T21:24:31.866Z,4.50
2018-06-10T21:26:59.781Z,4.27
2018-06-10T21:29:27.616Z,4.63
2018-06-10T21:31:55.424Z,4.23
2018-06-10T21:34:23.233Z,4.47
2018-06-10T21:36:51.057Z,4.40
2018-06-10T21:39:18.805Z,4.30
2018-06-10T21:41:46.697Z,4.63
2018-06-10T21:44:14.461Z,4.33
2018-06-10T21:46:42.250Z,4.07
2018-06-10T21:49:10.059Z,3.80
2018-06-10T21:51:38.159Z,4.87
2018-06-10T21:54:05.962Z,5.17
2018-06-10T21:56:34.327Z,4.73
2018-06-10T21:59:02.170Z,4.60
2018-06-10T22:01:30.287Z,4.47
2018-06-10T22:03:58.165Z,4.90
2018-06-10T22:06:26.543Z,4.33
2018-06-10T22:08:54.445Z,3.97
2018-06-10T22:11:22.235Z,4.03
2018-06-10T22:13:50.186Z,4.80
2018-06-10T22:16:18.028Z,4.80
2018-06-10T22:18:45.893Z,4.30
2018-06-10T22:21:13.794Z,4.20
2018-06-10T22:23:41.576Z,4.07
2018-06-10T22:26:09.385Z,4.23
2018-06-10T22:28:37.139Z,4.23
2018-06-10T22:31:05.134Z,3.97
2018-06-10T22:33:32.922Z,3.60
2018-06-10T22:36:00.677Z,3.97
2018-06-10T22:38:28.672Z,4.27
2018-06-10T22:40:56.432Z,4.00
2018-06-10T22:43:24.089Z,4.07
2018-06-10T22:45:52.037Z,3.70
2018-06-10T22:48:19.933Z,4.20
2018-06-10T22:50:48.018Z,4.07
2018-06-10T22:55:34.278Z,4.30
2018-06-10T22:58:02.172Z,4.10
2018-06-10T23:00:29.929Z,3.80
2018-06-10T23:02:57.758Z,4.20
2018-06-10T23:05:25.565Z,4.67
2018-06-10T23:07:53.386Z,3.30
2018-06-10T23:10:21.309Z,3.90
2018-06-10T23:12:48.968Z,4.40
2018-06-10T23:15:17.025Z,4.37
2018-06-10T23:17:45.146Z,4.50
2018-06-10T23:20:13.064Z,3.80
2018-06-10T23:22:40.856Z,3.47
2018-06-10T23:25:08.622Z,3.90
2018-06-10T23:27:36.385Z,4.30
2018-06-10T23:30:04.672Z,3.53
2018-06-10T23:32:32.421Z,4.00
2018-06-10T23:35:01.232Z,3.80
2018-06-10T23:37:28.996Z,3.87
2018-06-10T23:39:57.036Z,3.53
2018-06-10T23:42:24.820Z,3.50
2018-06-10T23:44:52.794Z,3.47
2018-06-10T23:47:20.497Z,3.73
2018-06-10T23:49:48.385Z,3.57
2018-06-10T23:52:16.166Z,3.47
2018-06-10T23:54:43.992Z,4.13
2018-06-10T23:57:11.895Z,3.70
2018-06-10T23:59:39.564Z,4.23
